Time;durP1;ratioP1;P1;durP2;ratioP2;P2;SDS_P1;SDS_P2;PMS_P1;PMS_P2;Temp;Humidity;BMP_temperature;BMP_pressure;BME280_temperature;BME280_humidity;BME280_pressure;Samples;Min_cycle;Max_cycle;Signal;HPM_P1;HPM_P2
2021/08/10 00:02:15;;;;;;;4.60;1.23;;;15.00;99.90;;;;;;5069449;28;20028;-70
2021/08/10 00:04:41;;;;;;;8.43;1.40;;;14.90;99.90;;;;;;5062970;28;20037;-70
2021/08/10 00:07:08;;;;;;;6.95;1.45;;;14.90;99.90;;;;;;5070451;28;20106;-70
2021/08/10 00:09:33;;;;;;;6.57;1.17;;;14.90;99.90;;;;;;5070918;28;20112;-70
2021/08/10 00:11:59;;;;;;;6.10;1.05;;;14.90;99.90;;;;;;5070382;28;20648;-71
2021/08/10 00:14:26;;;;;;;3.38;1.40;;;14.90;99.90;;;;;;5071089;28;20389;-70
2021/08/10 00:16:52;;;;;;;10.30;1.42;;;14.80;99.90;;;;;;5070477;28;20032;-70
2021/08/10 00:19:18;;;;;;;5.68;1.70;;;14.80;99.90;;;;;;5070016;28;20036;-70
2021/08/10 00:21:44;;;;;;;5.07;1.10;;;14.80;99.90;;;;;;5069188;28;20032;-70
2021/08/10 00:24:09;;;;;;;5.15;1.23;;;14.80;99.90;;;;;;5070217;28;20043;-71
2021/08/10 00:26:35;;;;;;;2.08;0.98;;;14.80;99.90;;;;;;5070540;28;20020;-70
2021/08/10 00:29:04;;;;;;;11.70;1.73;;;14.80;99.90;;;;;;5068991;28;20109;-70
2021/08/10 00:31:30;;;;;;;5.28;1.50;;;14.80;99.90;;;;;;5070517;28;20123;-70
2021/08/10 00:33:56;;;;;;;3.65;1.50;;;14.80;99.90;;;;;;5070552;28;20035;-70
2021/08/10 00:36:22;;;;;;;3.83;1.27;;;14.80;99.90;;;;;;5069779;28;20031;-70
2021/08/10 00:38:48;;;;;;;3.58;1.40;;;14.80;99.90;;;;;;5069684;28;20345;-70
2021/08/10 00:41:13;;;;;;;5.25;1.13;;;14.80;99.90;;;;;;5068511;28;20098;-71
2021/08/10 00:43:41;;;;;;;6.38;1.30;;;14.80;99.90;;;;;;5050387;28;20044;-70
2021/08/10 00:46:09;;;;;;;4.53;1.38;;;14.80;99.90;;;;;;5068630;28;20040;-71
2021/08/10 00:48:35;;;;;;;4.25;1.60;;;14.80;99.90;;;;;;5069852;28;20040;-70
2021/08/10 00:51:04;;;;;;;4.15;1.40;;;14.80;99.90;;;;;;5069514;28;20033;-71
2021/08/10 00:53:30;;;;;;;5.97;1.30;;;14.90;99.90;;;;;;5069446;28;20761;-71
2021/08/10 00:55:56;;;;;;;6.80;1.90;;;14.80;99.90;;;;;;5069519;28;20036;-70
2021/08/10 00:58:22;;;;;;;5.65;1.75;;;14.80;99.90;;;;;;5067545;28;20468;-71
2021/08/10 01:00:48;;;;;;;6.22;1.80;;;14.80;99.90;;;;;;5069866;28;20083;-70
2021/08/10 01:03:14;;;;;;;3.70;1.70;;;14.80;99.90;;;;;;5067614;28;20033;-71
2021/08/10 01:05:45;;;;;;;4.32;1.60;;;14.80;99.90;;;;;;5067998;28;20489;-70
2021/08/10 01:08:46;;;;;;;6.20;2.00;;;14.90;99.90;;;;;;5068287;28;20040;-71
2021/08/10 01:11:39;;;;;;;7.43;1.88;;;14.90;99.90;;;;;;5086149;28;20089;-70
2021/08/10 01:14:21;;;;;;;4.45;1.80;;;14.90;99.90;;;;;;5088679;28;20078;-71
2021/08/10 01:17:14;;;;;;;5.47;2.28;;;14.90;99.90;;;;;;5086082;28;20032;-71
2021/08/10 01:20:04;;;;;;;6.95;2.13;;;14.90;99.90;;;;;;5088411;28;20047;-70
2021/08/10 01:22:30;;;;;;;6.57;1.75;;;14.90;99.90;;;;;;5087723;28;20047;-71
2021/08/10 01:25:10;;;;;;;4.57;2.00;;;14.80;99.90;;;;;;5089241;28;20035;-70
2021/08/10 01:28:09;;;;;;;9.93;2.10;;;14.90;99.90;;;;;;5088782;28;20491;-71
2021/08/10 01:30:47;;;;;;;8.45;2.90;;;14.80;99.90;;;;;;5075999;28;20503;-70
2021/08/10 01:33:13;;;;;;;6.57;2.10;;;14.90;99.90;;;;;;5089113;28;20039;-70
2021/08/10 01:35:40;;;;;;;7.60;2.42;;;14.90;99.90;;;;;;5088998;28;20032;-68
2021/08/10 01:38:06;;;;;;;6.28;2.20;;;14.80;99.90;;;;;;5063867;28;20033;-68
2021/08/10 01:40:32;;;;;;;4.18;2.22;;;14.80;99.90;;;;;;5076495;28;20409;-71
2021/08/10 01:43:03;;;;;;;9.55;2.30;;;14.90;99.90;;;;;;5068523;28;20043;-70
2021/08/10 01:45:29;;;;;;;3.80;1.90;;;14.90;99.90;;;;;;5066063;28;20040;-71
2021/08/10 01:47:55;;;;;;;5.40;2.15;;;14.90;99.90;;;;;;5068380;28;20115;-70
2021/08/10 01:50:23;;;;;;;6.00;2.28;;;14.90;99.90;;;;;;5068220;28;20036;-70
2021/08/10 01:52:49;;;;;;;5.32;2.42;;;14.90;99.90;;;;;;5067955;28;20032;-70
2021/08/10 01:55:19;;;;;;;5.28;2.10;;;14.90;99.90;;;;;;5068760;28;20042;-70
2021/08/10 01:57:45;;;;;;;8.32;2.33;;;14.90;99.90;;;;;;5068007;28;20397;-70
2021/08/10 02:00:11;;;;;;;6.32;2.50;;;14.90;99.90;;;;;;5068496;28;20029;-70
2021/08/10 02:02:37;;;;;;;5.13;2.35;;;14.90;99.90;;;;;;5068079;28;20060;-73
2021/08/10 02:05:03;;;;;;;7.40;2.22;;;14.90;99.90;;;;;;5068696;28;20071;-68
2021/08/10 02:07:29;;;;;;;10.82;2.30;;;14.90;99.90;;;;;;5062974;28;20070;-70
2021/08/10 02:09:56;;;;;;;7.30;2.20;;;14.90;99.90;;;;;;5068319;28;20033;-71
2021/08/10 02:12:22;;;;;;;8.60;2.50;;;14.90;99.90;;;;;;5067086;28;20071;-70
2021/08/10 02:14:49;;;;;;;4.97;2.17;;;14.90;99.90;;;;;;5066706;28;20040;-70
2021/08/10 02:17:16;;;;;;;6.15;2.00;;;14.90;99.90;;;;;;5067794;28;20032;-70
2021/08/10 02:19:43;;;;;;;6.05;2.30;;;14.90;99.90;;;;;;5067612;28;20116;-71
2021/08/10 02:22:10;;;;;;;7.43;3.20;;;14.90;99.90;;;;;;5066831;28;20043;-70
2021/08/10 02:24:50;;;;;;;6.03;2.13;;;14.90;99.90;;;;;;5068673;28;20036;-70
2021/08/10 02:27:22;;;;;;;4.03;2.50;;;14.80;99.90;;;;;;5065410;28;20040;-70
2021/08/10 02:29:50;;;;;;;6.65;2.22;;;14.80;99.90;;;;;;5068625;28;20044;-70
2021/08/10 02:32:24;;;;;;;6.00;2.17;;;14.80;99.90;;;;;;5067721;28;20534;-70
2021/08/10 02:34:52;;;;;;;11.10;2.50;;;14.80;99.90;;;;;;5069219;28;20024;-68
2021/08/10 02:37:18;;;;;;;7.35;2.25;;;14.80;99.90;;;;;;5066064;28;20035;-69
2021/08/10 02:39:46;;;;;;;6.03;2.70;;;14.80;99.90;;;;;;5065751;28;20086;-70
2021/08/10 02:42:15;;;;;;;6.63;2.42;;;14.80;99.90;;;;;;5067443;28;20032;-70
2021/08/10 02:44:43;;;;;;;5.20;2.20;;;14.70;99.90;;;;;;5068643;28;20029;-71
2021/08/10 02:47:09;;;;;;;4.88;2.10;;;14.70;99.90;;;;;;5067490;28;20075;-70
2021/08/10 02:49:35;;;;;;;5.13;2.60;;;14.70;99.90;;;;;;5068297;28;20558;-70
2021/08/10 02:52:01;;;;;;;6.95;2.30;;;14.60;99.90;;;;;;5067501;28;20044;-71
2021/08/10 02:54:26;;;;;;;6.57;2.20;;;14.60;99.90;;;;;;5067726;28;20021;-70
2021/08/10 02:57:12;;;;;;;9.65;2.60;;;14.60;99.90;;;;;;5067334;28;20021;-70
2021/08/10 02:59:45;;;;;;;8.30;2.08;;;14.60;99.90;;;;;;5060304;28;20526;-70
2021/08/10 03:02:22;;;;;;;7.03;2.70;;;14.60;99.90;;;;;;5070933;28;20028;-70
2021/08/10 03:04:54;;;;;;;12.65;2.20;;;14.60;99.90;;;;;;5071485;28;20389;-70
2021/08/10 03:07:22;;;;;;;6.18;2.00;;;14.60;99.90;;;;;;5070838;28;20032;-70
2021/08/10 03:09:51;;;;;;;4.13;1.80;;;14.60;99.90;;;;;;5071584;28;20485;-70
2021/08/10 03:12:20;;;;;;;7.30;2.08;;;14.70;99.90;;;;;;5071540;28;20060;-69
2021/08/10 03:14:49;;;;;;;7.45;2.05;;;14.70;99.90;;;;;;5070222;28;20029;-70
2021/08/10 03:17:16;;;;;;;6.35;2.00;;;14.70;99.90;;;;;;5070947;28;20044;-71
2021/08/10 03:19:44;;;;;;;9.52;2.45;;;14.80;99.90;;;;;;5070264;28;20035;-70
2021/08/10 03:22:11;;;;;;;12.00;1.85;;;14.70;99.90;;;;;;5069920;28;20040;-70
2021/08/10 03:24:37;;;;;;;7.43;2.58;;;14.80;99.90;;;;;;5071085;28;20082;-70
2021/08/10 03:27:05;;;;;;;4.63;1.92;;;14.80;99.90;;;;;;5069757;28;20017;-70
2021/08/10 03:29:33;;;;;;;6.55;2.15;;;14.80;99.90;;;;;;5067059;28;20392;-70
2021/08/10 03:32:00;;;;;;;4.63;1.75;;;14.80;99.90;;;;;;5057385;28;20029;-70
2021/08/10 03:34:26;;;;;;;7.75;2.10;;;14.80;99.90;;;;;;5070912;28;20025;-71
2021/08/10 03:36:53;;;;;;;7.35;2.20;;;14.80;99.90;;;;;;5071100;28;20107;-70
2021/08/10 03:39:20;;;;;;;6.25;1.90;;;14.80;99.90;;;;;;5070827;28;20043;-70
2021/08/10 03:41:46;;;;;;;7.25;1.98;;;14.80;99.90;;;;;;5070980;28;20028;-70
2021/08/10 03:44:14;;;;;;;6.30;1.83;;;14.90;99.90;;;;;;5069474;28;20124;-70
2021/08/10 03:46:41;;;;;;;10.70;1.92;;;14.90;99.90;;;;;;5068472;28;20029;-70
2021/08/10 03:49:07;;;;;;;6.20;1.65;;;14.80;99.90;;;;;;5070764;28;20034;-70
2021/08/10 03:51:35;;;;;;;6.50;1.98;;;14.90;99.90;;;;;;5068865;28;20039;-71
2021/08/10 03:54:01;;;;;;;9.55;2.03;;;14.80;99.90;;;;;;5055042;28;20028;-70
2021/08/10 03:56:28;;;;;;;9.50;1.60;;;14.80;99.90;;;;;;5069244;28;20036;-70
2021/08/10 03:58:55;;;;;;;8.65;1.58;;;14.80;99.90;;;;;;5068608;28;20562;-70
2021/08/10 04:01:23;;;;;;;5.25;2.03;;;14.80;99.90;;;;;;5070610;28;20144;-70
2021/08/10 04:03:49;;;;;;;6.53;2.05;;;14.90;99.90;;;;;;5070163;28;20044;-70
2021/08/10 04:06:15;;;;;;;7.68;1.85;;;14.80;99.90;;;;;;5070515;28;20045;-70
2021/08/10 04:08:42;;;;;;;12.15;2.10;;;14.80;99.90;;;;;;5069709;28;20025;-70
2021/08/10 04:11:08;;;;;;;5.80;1.75;;;14.80;99.90;;;;;;5070426;28;20397;-70
2021/08/10 04:13:34;;;;;;;5.20;1.95;;;14.80;99.90;;;;;;5067319;28;20062;-72
2021/08/10 04:16:04;;;;;;;6.43;2.00;;;14.80;99.90;;;;;;5068351;28;20032;-70
2021/08/10 04:18:34;;;;;;;9.10;1.75;;;14.80;99.90;;;;;;5062742;28;20071;-69
2021/08/10 04:20:59;;;;;;;4.93;1.98;;;14.80;99.90;;;;;;5068792;28;20510;-70
2021/08/10 04:23:25;;;;;;;8.55;1.67;;;14.80;99.90;;;;;;5069001;28;20040;-69
2021/08/10 04:25:51;;;;;;;6.00;2.00;;;14.80;99.90;;;;;;5068147;28;20041;-71
2021/08/10 04:28:16;;;;;;;7.93;2.20;;;14.70;99.90;;;;;;5069076;28;20037;-70
2021/08/10 04:30:42;;;;;;;8.48;1.85;;;14.70;99.90;;;;;;5067847;28;20068;-70
2021/08/10 04:33:08;;;;;;;10.02;2.83;;;14.70;99.90;;;;;;5065908;28;20059;-68
2021/08/10 04:35:35;;;;;;;6.78;2.47;;;14.70;99.90;;;;;;5069385;28;20488;-70
2021/08/10 04:38:02;;;;;;;5.50;2.00;;;14.70;99.90;;;;;;5068969;28;20040;-70
2021/08/10 04:40:28;;;;;;;5.15;2.40;;;14.70;99.90;;;;;;5067972;28;20032;-71
2021/08/10 04:42:58;;;;;;;7.18;2.00;;;14.60;99.90;;;;;;5067685;28;20036;-71
2021/08/10 04:45:23;;;;;;;7.47;2.83;;;14.60;99.90;;;;;;5068885;28;20042;-70
2021/08/10 04:47:49;;;;;;;5.55;1.92;;;14.50;99.90;;;;;;5067629;28;20028;-70
2021/08/10 04:50:15;;;;;;;6.28;2.00;;;14.50;99.90;;;;;;5069634;28;20393;-70
2021/08/10 04:52:40;;;;;;;9.73;2.40;;;14.50;99.90;;;;;;5069428;28;20055;-70
2021/08/10 04:55:07;;;;;;;8.65;2.33;;;14.50;99.90;;;;;;5068685;28;20066;-71
2021/08/10 04:57:33;;;;;;;8.30;2.00;;;14.40;99.90;;;;;;5068125;28;20641;-69
2021/08/10 05:00:00;;;;;;;5.95;2.17;;;14.40;99.90;;;;;;5068930;28;20040;-71
2021/08/10 05:02:26;;;;;;;8.05;2.30;;;14.40;99.90;;;;;;5054983;28;20040;-70
2021/08/10 05:04:52;;;;;;;6.13;2.05;;;14.50;99.90;;;;;;5061971;28;20605;-71
2021/08/10 05:07:17;;;;;;;9.00;2.05;;;14.40;99.90;;;;;;5067302;28;20038;-70
2021/08/10 05:09:43;;;;;;;5.95;2.28;;;14.40;99.90;;;;;;5067930;28;20037;-70
2021/08/10 05:12:09;;;;;;;9.73;2.80;;;14.50;99.90;;;;;;5067794;28;20036;-70
2021/08/10 05:14:36;;;;;;;6.03;2.10;;;14.50;99.90;;;;;;5068691;28;20036;-70
2021/08/10 05:17:01;;;;;;;9.93;2.20;;;14.50;99.90;;;;;;5065905;28;20012;-69
2021/08/10 05:19:27;;;;;;;4.65;1.90;;;14.50;99.90;;;;;;5065064;28;20028;-70
2021/08/10 05:21:52;;;;;;;6.97;1.80;;;14.50;99.90;;;;;;5066144;28;20078;-71
2021/08/10 05:24:18;;;;;;;4.35;2.25;;;14.60;99.90;;;;;;5067352;28;20566;-70
2021/08/10 05:26:43;;;;;;;9.30;2.08;;;14.60;99.90;;;;;;5066933;28;20093;-70
2021/08/10 05:29:09;;;;;;;4.28;2.10;;;14.70;99.90;;;;;;5068032;28;20113;-71
2021/08/10 05:31:35;;;;;;;5.03;2.00;;;14.70;99.90;;;;;;5066706;28;20047;-70
2021/08/10 05:34:00;;;;;;;8.30;2.63;;;14.70;99.90;;;;;;5072777;28;20552;-71
2021/08/10 05:36:26;;;;;;;7.80;2.28;;;14.70;99.90;;;;;;5067397;28;20032;-70
2021/08/10 05:38:54;;;;;;;5.18;1.92;;;14.80;99.90;;;;;;5068616;28;20493;-69
2021/08/10 05:41:21;;;;;;;7.15;2.28;;;14.80;99.90;;;;;;5082472;28;20056;-69
2021/08/10 05:43:47;;;;;;;6.20;2.38;;;14.90;99.90;;;;;;5068705;28;20036;-70
2021/08/10 05:46:13;;;;;;;11.75;2.10;;;15.00;99.90;;;;;;5067730;28;20539;-69
2021/08/10 05:48:39;;;;;;;9.57;3.13;;;15.00;99.90;;;;;;5069116;28;20029;-70
2021/08/10 05:51:05;;;;;;;8.18;2.55;;;15.00;99.90;;;;;;5069712;28;20036;-69
2021/08/10 05:53:32;;;;;;;9.70;2.50;;;15.20;99.90;;;;;;5069136;28;20036;-69
2021/08/10 05:55:58;;;;;;;10.40;2.53;;;15.30;99.90;;;;;;5067799;28;20504;-70
2021/08/10 05:58:24;;;;;;;5.68;1.95;;;15.30;99.90;;;;;;5066938;28;20029;-69
2021/08/10 06:00:49;;;;;;;4.88;2.03;;;15.40;99.90;;;;;;5068398;28;20032;-69
2021/08/10 06:03:15;;;;;;;7.10;2.53;;;15.60;99.90;;;;;;5066977;28;20105;-68
2021/08/10 06:05:41;;;;;;;5.25;2.03;;;15.70;99.90;;;;;;5068713;28;20154;-69
2021/08/10 06:08:06;;;;;;;9.40;1.92;;;15.90;99.90;;;;;;5067525;28;20834;-69
2021/08/10 06:10:32;;;;;;;4.60;1.85;;;16.10;99.90;;;;;;5067362;28;20033;-69
2021/08/10 06:12:57;;;;;;;4.82;1.70;;;16.20;99.90;;;;;;5068981;28;20109;-68
2021/08/10 06:15:23;;;;;;;10.95;2.35;;;16.40;99.90;;;;;;5068428;28;20504;-69
2021/08/10 06:17:49;;;;;;;8.68;2.03;;;16.50;99.90;;;;;;5068110;28;20028;-69
2021/08/10 06:20:15;;;;;;;5.75;1.95;;;16.70;99.90;;;;;;5068025;28;20072;-69
2021/08/10 06:22:41;;;;;;;5.60;2.05;;;16.80;99.90;;;;;;5066525;28;20488;-69
2021/08/10 06:25:07;;;;;;;8.60;2.03;;;16.90;99.90;;;;;;5068775;28;20044;-70
2021/08/10 06:27:32;;;;;;;4.38;1.38;;;17.00;99.90;;;;;;5067769;28;20093;-69
2021/08/10 06:29:58;;;;;;;4.65;1.70;;;17.30;99.90;;;;;;5066178;28;20619;-69
2021/08/10 06:32:23;;;;;;;7.55;2.50;;;17.40;99.90;;;;;;5067934;28;20033;-70
2021/08/10 06:34:49;;;;;;;5.05;1.67;;;17.60;99.90;;;;;;5068705;28;20035;-69
2021/08/10 06:37:14;;;;;;;3.33;1.58;;;17.80;99.90;;;;;;5069591;28;20056;-69
2021/08/10 06:39:40;;;;;;;6.60;2.33;;;18.00;99.90;;;;;;5072740;28;20471;-69
2021/08/10 06:42:05;;;;;;;6.22;1.60;;;18.30;99.90;;;;;;5070520;28;20025;-70
2021/08/10 06:44:31;;;;;;;7.57;1.88;;;18.70;99.90;;;;;;5070282;28;20045;-69
2021/08/10 06:46:57;;;;;;;5.50;1.98;;;19.10;99.90;;;;;;5070376;28;20021;-69
2021/08/10 06:49:22;;;;;;;6.82;1.67;;;19.40;99.90;;;;;;5070971;28;20040;-69
2021/08/10 06:51:48;;;;;;;5.65;1.70;;;19.50;99.90;;;;;;5068148;28;20127;-69
2021/08/10 06:54:13;;;;;;;4.32;1.30;;;19.60;99.90;;;;;;5071541;28;20054;-69
2021/08/10 06:56:39;;;;;;;10.38;2.63;;;19.80;99.90;;;;;;5070014;28;20047;-69
2021/08/10 06:59:05;;;;;;;11.85;2.92;;;19.80;99.90;;;;;;5071543;28;20032;-69
2021/08/10 07:01:30;;;;;;;8.98;1.90;;;19.60;99.90;;;;;;5089748;28;20040;-69
2021/08/10 07:03:57;;;;;;;6.07;2.00;;;19.30;99.90;;;;;;5074855;28;20032;-69
2021/08/10 07:06:23;;;;;;;7.75;1.50;;;19.10;99.90;;;;;;5089376;28;20047;-71
2021/08/10 07:08:53;;;;;;;5.07;1.90;;;19.00;99.90;;;;;;5074683;28;20036;-71
2021/08/10 07:11:19;;;;;;;6.40;1.90;;;19.00;99.90;;;;;;5065332;28;20694;-71
2021/08/10 07:13:44;;;;;;;3.83;1.50;;;19.10;99.90;;;;;;5070562;28;20060;-69
2021/08/10 07:16:10;;;;;;;7.07;2.22;;;19.60;99.90;;;;;;5073050;28;20523;-69
2021/08/10 07:18:38;;;;;;;3.78;1.40;;;19.80;99.90;;;;;;5068060;28;20033;-69
2021/08/10 07:21:05;;;;;;;10.95;2.17;;;19.90;99.90;;;;;;5071122;28;20028;-69
2021/08/10 07:23:30;;;;;;;4.43;1.65;;;19.80;99.90;;;;;;5069714;28;20040;-68
2021/08/10 07:25:56;;;;;;;3.97;1.63;;;19.70;99.90;;;;;;5072008;28;20032;-69
2021/08/10 07:28:22;;;;;;;9.90;2.25;;;19.80;99.90;;;;;;5071008;28;20028;-69
2021/08/10 07:30:48;;;;;;;5.05;1.67;;;19.70;99.90;;;;;;5065911;28;20032;-68
2021/08/10 07:33:13;;;;;;;6.50;2.35;;;19.70;99.90;;;;;;5069917;28;20055;-68
2021/08/10 07:35:40;;;;;;;9.23;1.80;;;19.60;99.90;;;;;;5066794;28;20500;-69
2021/08/10 07:38:05;;;;;;;16.73;1.77;;;19.60;99.90;;;;;;5071542;28;20095;-69
2021/08/10 07:40:31;;;;;;;6.30;1.92;;;20.10;99.90;;;;;;5074326;28;20041;-69
2021/08/10 07:42:57;;;;;;;5.25;1.38;;;20.40;99.90;;;;;;5070576;28;20127;-69
2021/08/10 07:45:23;;;;;;;6.95;1.63;;;20.60;99.90;;;;;;5069280;28;20116;-69
2021/08/10 07:47:49;;;;;;;6.32;1.98;;;21.20;99.90;;;;;;5068952;28;20108;-69
2021/08/10 07:50:15;;;;;;;8.63;2.08;;;21.50;99.90;;;;;;5069607;28;20044;-69
2021/08/10 07:52:41;;;;;;;5.80;1.70;;;21.40;99.90;;;;;;5069121;28;20580;-69
2021/08/10 07:55:08;;;;;;;6.18;1.70;;;21.50;99.90;;;;;;5069602;28;20055;-69
2021/08/10 07:57:33;;;;;;;7.40;1.80;;;21.70;99.90;;;;;;5070864;28;20059;-69
2021/08/10 07:59:59;;;;;;;7.95;1.98;;;21.70;99.90;;;;;;5069623;28;20392;-69
2021/08/10 08:02:24;;;;;;;11.93;2.03;;;21.60;99.90;;;;;;5070197;28;20098;-69
2021/08/10 08:04:50;;;;;;;5.93;1.70;;;21.70;99.90;;;;;;5068970;28;20020;-69
2021/08/10 08:07:15;;;;;;;5.50;2.25;;;21.60;99.90;;;;;;5068931;28;20044;-69
2021/08/10 08:09:41;;;;;;;4.30;1.70;;;21.50;99.90;;;;;;5068993;28;20027;-69
2021/08/10 08:12:07;;;;;;;5.47;1.73;;;21.40;99.90;;;;;;5070376;28;20124;-69
2021/08/10 08:14:33;;;;;;;9.65;2.50;;;21.20;99.90;;;;;;5070357;28;20058;-69
2021/08/10 08:16:59;;;;;;;4.05;1.40;;;21.20;99.90;;;;;;5069782;28;20631;-69
2021/08/10 08:19:25;;;;;;;6.85;1.55;;;21.00;99.90;;;;;;5071538;28;20051;-68
2021/08/10 08:21:50;;;;;;;4.55;1.40;;;20.80;99.90;;;;;;5070195;28;20094;-69
2021/08/10 08:24:16;;;;;;;3.88;1.30;;;20.60;99.90;;;;;;5067309;28;20377;-69
2021/08/10 08:26:41;;;;;;;7.43;1.50;;;20.40;99.90;;;;;;5067823;28;20029;-69
2021/08/10 08:29:07;;;;;;;9.95;1.63;;;20.20;99.90;;;;;;5071499;28;20139;-69
2021/08/10 08:31:34;;;;;;;6.10;1.40;;;20.00;99.90;;;;;;5069957;28;20040;-68
2021/08/10 08:34:00;;;;;;;2.78;1.10;;;19.90;99.90;;;;;;5071860;28;20085;-69
2021/08/10 08:36:25;;;;;;;4.35;1.13;;;19.80;99.90;;;;;;5068432;28;20139;-68
2021/08/10 08:38:51;;;;;;;4.28;1.52;;;19.80;99.90;;;;;;5068332;28;20069;-69
2021/08/10 08:41:19;;;;;;;2.30;1.00;;;19.80;99.90;;;;;;5069575;28;20128;-69
2021/08/10 08:43:45;;;;;;;4.10;1.13;;;20.00;99.90;;;;;;5070292;28;20464;-69
2021/08/10 08:46:14;;;;;;;8.48;1.30;;;20.30;99.90;;;;;;5068092;28;20048;-69
2021/08/10 08:48:43;;;;;;;3.15;1.10;;;20.40;99.90;;;;;;5071216;28;20555;-68
2021/08/10 08:51:11;;;;;;;4.38;1.35;;;20.60;99.90;;;;;;5066896;28;20511;-69
2021/08/10 08:54:02;;;;;;;9.43;1.67;;;20.40;99.90;;;;;;5070218;28;20102;-68
2021/08/10 08:56:28;;;;;;;4.07;1.10;;;20.10;99.90;;;;;;5066488;28;20048;-68
2021/08/10 08:58:55;;;;;;;6.63;1.10;;;19.70;99.90;;;;;;5066515;28;20385;-69
2021/08/10 09:01:21;;;;;;;4.43;1.20;;;19.60;99.90;;;;;;5069903;28;20044;-69
2021/08/10 09:03:47;;;;;;;4.07;1.25;;;19.40;99.90;;;;;;5059755;28;20040;-69
2021/08/10 09:06:13;;;;;;;6.07;1.40;;;19.10;99.90;;;;;;5066757;28;20076;-69
2021/08/10 09:08:40;;;;;;;4.95;1.58;;;18.90;99.90;;;;;;5064851;28;20047;-70
2021/08/10 09:11:09;;;;;;;5.32;1.30;;;18.80;99.90;;;;;;5068263;28;20425;-70
2021/08/10 09:13:38;;;;;;;4.28;1.33;;;18.60;99.90;;;;;;5067494;28;20033;-70
2021/08/10 09:16:06;;;;;;;4.65;1.50;;;18.40;99.90;;;;;;5088596;28;20060;-69
2021/08/10 09:18:38;;;;;;;6.10;1.38;;;18.30;99.90;;;;;;5086655;28;20032;-69
2021/08/10 09:21:08;;;;;;;1.90;0.93;;;18.10;99.90;;;;;;5076437;28;20036;-69
2021/08/10 09:23:38;;;;;;;2.10;0.82;;;17.90;99.90;;;;;;5088437;28;20078;-69
2021/08/10 09:26:05;;;;;;;1.57;0.70;;;17.80;99.90;;;;;;5087784;28;20040;-69
2021/08/10 09:28:32;;;;;;;4.13;1.08;;;17.70;99.90;;;;;;5085685;28;20047;-69
2021/08/10 09:31:30;;;;;;;3.95;1.80;;;17.80;99.90;;;;;;5089118;28;20051;-69
2021/08/10 09:34:20;;;;;;;1.95;1.05;;;17.70;99.90;;;;;;5087281;28;20043;-69
2021/08/10 09:36:47;;;;;;;3.72;1.27;;;17.70;99.90;;;;;;5068092;28;20119;-70
2021/08/10 09:39:13;;;;;;;2.50;1.00;;;17.60;99.90;;;;;;5074285;28;20299;-70
2021/08/10 09:41:40;;;;;;;6.90;2.22;;;17.60;99.90;;;;;;5068869;28;20230;-70
2021/08/10 09:44:19;;;;;;;5.28;1.80;;;17.50;99.90;;;;;;5071646;28;20062;-70
2021/08/10 09:46:49;;;;;;;9.57;1.88;;;17.40;99.90;;;;;;5084624;28;20460;-70
2021/08/10 09:49:17;;;;;;;5.47;1.63;;;17.30;99.90;;;;;;5087010;28;20127;-70
2021/08/10 09:51:53;;;;;;;6.03;2.17;;;17.20;99.90;;;;;;5074801;28;20071;-69
2021/08/10 09:54:21;;;;;;;9.82;2.35;;;17.30;99.90;;;;;;5088359;28;20032;-69
2021/08/10 09:56:52;;;;;;;7.88;1.88;;;17.40;99.90;;;;;;5086161;28;20032;-70
2021/08/10 09:59:27;;;;;;;6.25;2.55;;;17.80;99.90;;;;;;5087500;28;20028;-70
2021/08/10 10:01:57;;;;;;;8.73;2.45;;;18.30;99.90;;;;;;5081011;28;20028;-70
2021/08/10 10:04:32;;;;;;;6.22;2.47;;;18.80;99.90;;;;;;5073825;28;20035;-70
2021/08/10 10:07:09;;;;;;;4.10;2.03;;;19.00;99.90;;;;;;5071903;28;20097;-69
2021/08/10 10:09:35;;;;;;;5.30;2.13;;;19.10;99.90;;;;;;5068417;28;20103;-70
2021/08/10 10:12:01;;;;;;;6.57;1.90;;;19.10;99.90;;;;;;5071409;28;20040;-70
2021/08/10 10:14:28;;;;;;;6.85;1.75;;;19.10;99.90;;;;;;5083754;28;20032;-70
2021/08/10 10:16:55;;;;;;;12.25;2.85;;;19.20;99.90;;;;;;5074406;28;20463;-69
2021/08/10 10:19:22;;;;;;;5.30;1.92;;;19.50;99.90;;;;;;5074186;28;20702;-70
2021/08/10 10:21:50;;;;;;;3.30;1.80;;;19.80;99.90;;;;;;5085589;28;20126;-70
2021/08/10 10:24:19;;;;;;;9.10;1.45;;;20.00;99.90;;;;;;5084090;28;20047;-70
2021/08/10 10:26:48;;;;;;;6.28;1.92;;;20.30;99.90;;;;;;5084986;28;20040;-70
2021/08/10 10:29:15;;;;;;;8.40;1.70;;;20.40;99.90;;;;;;5083047;28;20127;-71
2021/08/10 10:31:42;;;;;;;7.10;1.55;;;20.40;99.90;;;;;;5080471;28;20537;-70
2021/08/10 10:34:12;;;;;;;5.03;1.50;;;20.50;99.90;;;;;;5087587;28;20028;-70
2021/08/10 10:36:43;;;;;;;7.55;1.80;;;20.80;99.90;;;;;;5084419;28;20059;-69
2021/08/10 10:39:11;;;;;;;5.40;2.10;;;21.20;99.90;;;;;;5083804;28;20040;-70
2021/08/10 10:41:37;;;;;;;3.85;1.45;;;21.50;99.90;;;;;;5082552;28;20025;-70
2021/08/10 10:44:06;;;;;;;5.15;1.75;;;21.80;99.90;;;;;;5068828;28;20392;-72
2021/08/10 10:46:35;;;;;;;3.92;1.35;;;21.90;99.90;;;;;;5086331;28;20370;-70
2021/08/10 10:49:08;;;;;;;5.80;1.55;;;22.30;99.90;;;;;;5087250;28;20039;-70
2021/08/10 10:51:37;;;;;;;4.22;1.80;;;22.50;99.90;;;;;;5085183;28;20063;-70
2021/08/10 10:54:26;;;;;;;5.22;1.60;;;22.70;99.90;;;;;;5087564;28;20070;-69
2021/08/10 10:57:00;;;;;;;6.93;1.27;;;22.60;99.90;;;;;;5077375;28;20152;-70
2021/08/10 10:59:34;;;;;;;2.55;1.10;;;22.50;99.90;;;;;;5073135;28;20040;-70
2021/08/10 11:02:25;;;;;;;5.28;1.70;;;22.40;99.90;;;;;;5083538;28;20040;-69
2021/08/10 11:05:05;;;;;;;5.30;1.20;;;22.20;99.90;;;;;;5083806;28;20060;-70
2021/08/10 11:07:38;;;;;;;5.38;1.33;;;22.00;99.90;;;;;;5069540;28;20028;-69
2021/08/10 11:10:10;;;;;;;6.22;1.20;;;21.70;99.90;;;;;;5063251;28;20044;-70
2021/08/10 11:12:47;;;;;;;2.88;1.25;;;21.50;99.90;;;;;;5063545;28;20507;-69
2021/08/10 11:15:19;;;;;;;4.88;1.35;;;21.20;99.90;;;;;;5053120;28;20388;-70
2021/08/10 11:18:09;;;;;;;6.97;1.85;;;21.00;99.90;;;;;;5064783;28;20029;-69
2021/08/10 11:20:40;;;;;;;6.22;1.50;;;20.80;99.90;;;;;;5063168;28;20040;-69
2021/08/10 11:23:31;;;;;;;5.75;1.65;;;20.60;99.90;;;;;;5066559;28;20044;-69
2021/08/10 11:26:02;;;;;;;4.40;1.77;;;20.40;99.90;;;;;;5074107;28;20032;-69
2021/08/10 11:28:29;;;;;;;3.88;1.27;;;20.20;99.90;;;;;;5070862;28;20527;-69
2021/08/10 11:30:57;;;;;;;5.05;1.58;;;20.10;99.90;;;;;;5068794;28;20477;-69
2021/08/10 11:33:42;;;;;;;10.50;2.25;;;19.90;99.90;;;;;;5068963;28;20086;-69
2021/08/10 11:36:13;;;;;;;5.00;1.35;;;19.80;99.90;;;;;;5055598;28;20117;-69
2021/08/10 11:38:46;;;;;;;5.20;1.50;;;19.70;99.90;;;;;;5069742;28;20086;-69
2021/08/10 11:41:13;;;;;;;5.90;1.55;;;19.70;99.90;;;;;;5068549;28;20067;-69
2021/08/10 11:44:27;;;;;;;5.78;1.58;;;19.70;99.90;;;;;;5069199;28;20373;-69
2021/08/10 11:46:52;;;;;;;4.15;1.45;;;19.90;99.90;;;;;;5045347;28;20047;-69
2021/08/10 11:49:22;;;;;;;4.18;1.20;;;20.30;99.90;;;;;;5069625;28;20033;-69
2021/08/10 11:51:49;;;;;;;7.80;1.50;;;20.60;99.90;;;;;;5088197;28;20648;-69
2021/08/10 11:54:19;;;;;;;5.00;1.70;;;20.80;99.90;;;;;;5073755;28;20036;-69
2021/08/10 11:57:02;;;;;;;5.33;1.70;;;20.90;99.90;;;;;;5073898;28;20145;-69
2021/08/10 11:59:28;;;;;;;5.57;1.40;;;20.90;99.90;;;;;;5089191;28;20675;-69
2021/08/10 12:01:55;;;;;;;9.38;1.48;;;20.80;99.90;;;;;;5089223;28;20024;-69
2021/08/10 12:04:22;;;;;;;7.28;1.65;;;20.70;99.90;;;;;;5087943;28;20036;-69
2021/08/10 12:06:50;;;;;;;5.93;1.50;;;20.70;99.90;;;;;;5088283;28;20032;-69
2021/08/10 12:09:18;;;;;;;4.75;1.42;;;20.70;99.90;;;;;;5073435;28;20074;-69
2021/08/10 12:11:50;;;;;;;4.72;1.17;;;20.70;99.90;;;;;;5068352;28;20035;-69
2021/08/10 12:14:21;;;;;;;3.17;1.17;;;20.90;99.90;;;;;;5060646;28;20040;-69
2021/08/10 12:17:03;;;;;;;5.20;1.40;;;21.10;99.90;;;;;;5078832;28;20480;-69
2021/08/10 12:19:29;;;;;;;3.63;1.25;;;21.30;99.90;;;;;;5068365;28;20048;-69
2021/08/10 12:21:54;;;;;;;5.75;1.30;;;21.30;99.90;;;;;;5068250;28;20067;-69
2021/08/10 12:24:28;;;;;;;4.32;1.00;;;21.30;99.90;;;;;;5068698;28;20501;-69
2021/08/10 12:26:54;;;;;;;5.70;1.45;;;21.10;99.90;;;;;;5067519;28;20047;-69
2021/08/10 12:29:20;;;;;;;5.57;1.23;;;21.10;99.90;;;;;;5068721;28;20029;-69
2021/08/10 12:31:47;;;;;;;6.45;1.50;;;21.10;99.90;;;;;;5068309;28;20114;-68
2021/08/10 12:34:13;;;;;;;7.00;1.50;;;21.20;99.90;;;;;;5067431;28;20045;-68
2021/08/10 12:36:51;;;;;;;5.90;1.40;;;21.30;99.90;;;;;;5067800;28;20035;-70
2021/08/10 12:39:18;;;;;;;3.38;0.98;;;21.30;99.90;;;;;;5066591;28;20108;-68
2021/08/10 12:41:44;;;;;;;2.65;1.00;;;21.40;99.90;;;;;;5067449;28;20082;-69
2021/08/10 12:44:10;;;;;;;6.45;1.60;;;21.30;99.90;;;;;;5068343;28;20044;-69
2021/08/10 12:46:37;;;;;;;3.65;1.33;;;21.40;99.90;;;;;;5067754;28;20032;-68
2021/08/10 12:49:11;;;;;;;2.97;1.52;;;21.50;99.90;;;;;;5067523;28;20039;-69
2021/08/10 12:51:59;;;;;;;6.10;1.25;;;21.50;99.90;;;;;;5051166;28;20033;-69
2021/08/10 12:54:27;;;;;;;5.22;1.00;;;21.60;99.90;;;;;;5067761;28;20032;-69